Time;durP1;ratioP1;P1;durP2;ratioP2;P2;SDS_P1;SDS_P2;PMS_P1;PMS_P2;Temp;Humidity;BMP_temperature;BMP_pressure;BME280_temperature;BME280_humidity;BME280_pressure;Samples;Min_cycle;Max_cycle;Signal;HPM_P1;HPM_P2
2023/03/11 00:01:13;;;;;;;2.17;0.80;;;;;;;16.89;54.90;95665.75;10333779;28;20046;-32
2023/03/11 00:06:13;;;;;;;2.63;0.83;;;;;;;16.87;54.83;95673.34;10326073;28;20042;-31
2023/03/11 00:11:13;;;;;;;1.40;0.60;;;;;;;16.87;54.11;95672.50;10325129;28;20719;-31
2023/03/11 00:16:14;;;;;;;2.37;0.80;;;;;;;16.89;54.10;95668.28;10332574;28;20473;-32
2023/03/11 00:21:16;;;;;;;1.73;0.80;;;;;;;16.87;53.10;95653.13;10327503;28;20414;-32
2023/03/11 00:26:16;;;;;;;1.52;0.80;;;;;;;16.88;53.74;95659.00;10331534;28;20036;-31
2023/03/11 00:31:17;;;;;;;1.87;0.60;;;;;;;16.90;53.94;95662.38;10332004;28;20474;-31
2023/03/11 00:36:35;;;;;;;3.92;0.70;;;;;;;16.89;53.92;95658.16;10314332;28;20359;-32
2023/03/11 00:41:35;;;;;;;1.38;1.02;;;;;;;16.86;53.92;95656.50;10306308;28;20037;-33
2023/03/11 00:46:36;;;;;;;2.28;1.00;;;;;;;16.87;54.07;95675.88;10331650;28;20101;-32
2023/03/11 00:51:36;;;;;;;2.23;0.63;;;;;;;16.87;53.59;95662.38;10313487;28;20593;-31
2023/03/11 00:56:37;;;;;;;3.73;0.80;;;;;;;16.87;53.97;95680.06;10330410;28;20050;-32
2023/03/11 01:01:38;;;;;;;3.20;0.85;;;;;;;16.91;53.84;95672.44;10313983;28;20030;-32
2023/03/11 01:06:38;;;;;;;2.50;0.80;;;;;;;16.90;54.08;95672.47;10330127;28;20034;-31
2023/03/11 01:11:39;;;;;;;1.27;0.80;;;;;;;16.88;54.42;95684.28;10330074;28;20324;-32
2023/03/11 01:16:41;;;;;;;3.28;0.70;;;;;;;16.87;54.26;95688.50;10330200;28;20550;-32
2023/03/11 01:21:42;;;;;;;1.70;0.82;;;;;;;16.86;53.53;95686.00;10330346;28;20041;-31
2023/03/11 01:26:43;;;;;;;1.90;0.83;;;;;;;16.85;53.76;95696.97;10329927;28;20043;-29
2023/03/11 01:31:44;;;;;;;1.88;1.05;;;;;;;16.85;53.00;95692.75;10313186;28;20816;-30
2023/03/11 01:36:44;;;;;;;1.15;0.55;;;;;;;16.79;54.12;95672.59;10311699;28;20037;-29
2023/03/11 01:41:45;;;;;;;2.00;0.50;;;;;;;16.82;53.30;95677.59;10304438;28;20038;-30
2023/03/11 01:46:51;;;;;;;1.88;0.50;;;;;;;16.84;53.63;95710.44;10311853;28;20038;-29
2023/03/11 01:51:59;;;;;;;2.03;0.57;;;;;;;16.82;53.79;95691.94;10309767;28;20510;-31
2023/03/11 01:57:08;;;;;;;1.48;0.57;;;;;;;16.82;53.84;95680.13;10305653;28;20498;-31
2023/03/11 02:02:24;;;;;;;1.17;0.80;;;;;;;16.78;53.54;95645.63;10310888;28;20416;-32
2023/03/11 02:07:25;;;;;;;1.00;0.63;;;;;;;16.81;53.94;95644.78;10311597;28;20305;-31
2023/03/11 02:12:29;;;;;;;1.00;0.50;;;;;;;16.83;53.60;95650.66;10310525;28;20026;-31
2023/03/11 02:17:30;;;;;;;1.80;0.95;;;;;;;16.90;53.14;95675.00;10325918;28;20034;-31
2023/03/11 02:22:34;;;;;;;3.58;0.70;;;;;;;16.86;53.78;95673.34;10310128;28;20034;-31
2023/03/11 02:27:42;;;;;;;1.35;0.65;;;;;;;16.82;53.63;95687.72;10309471;28;20406;-31
2023/03/11 02:32:47;;;;;;;2.38;0.65;;;;;;;16.81;53.66;95695.31;10311096;28;20548;-32
2023/03/11 02:37:50;;;;;;;2.28;0.60;;;;;;;16.82;53.17;95692.75;10306813;28;20498;-31
2023/03/11 02:43:21;;;;;;;0.80;0.65;;;;;;;16.82;53.49;95697.00;10310479;28;20114;-33
2023/03/11 02:48:24;;;;;;;4.68;1.00;;;;;;;16.80;52.86;95675.94;10321925;28;20516;-33
2023/03/11 02:53:27;;;;;;;2.75;1.30;;;;;;;16.81;53.58;95665.00;10309802;28;20034;-31
2023/03/11 02:58:28;;;;;;;1.10;0.50;;;;;;;16.79;53.11;95654.88;10310006;28;20031;-31
2023/03/11 03:03:28;;;;;;;3.83;0.70;;;;;;;16.79;52.84;95661.63;10327078;28;20406;-31
2023/03/11 03:08:29;;;;;;;1.83;0.40;;;;;;;16.80;53.40;95668.34;10309276;28;20022;-32
2023/03/11 03:13:31;;;;;;;1.73;0.60;;;;;;;16.79;52.80;95669.22;10327115;28;20041;-32
2023/03/11 03:18:32;;;;;;;2.42;0.60;;;;;;;16.79;52.55;95646.47;10309049;28;20317;-31
2023/03/11 03:23:36;;;;;;;0.95;0.47;;;;;;;16.80;53.82;95643.06;10308731;28;20046;-31
2023/03/11 03:28:36;;;;;;;5.68;0.98;;;;;;;16.81;53.37;95639.72;10325667;28;20030;-32
2023/03/11 03:33:37;;;;;;;2.30;0.60;;;;;;;16.86;52.78;95673.34;10304412;28;20039;-32
2023/03/11 03:38:40;;;;;;;2.80;1.13;;;;;;;16.86;52.22;95668.28;10325836;28;20053;-31
2023/03/11 03:43:40;;;;;;;1.58;0.43;;;;;;;16.85;51.81;95671.69;10312216;28;20133;-31
2023/03/11 03:48:42;;;;;;;1.88;0.60;;;;;;;16.85;51.98;95684.31;10315686;28;20034;-31
2023/03/11 03:53:45;;;;;;;3.45;0.80;;;;;;;16.85;52.47;95696.97;10285363;28;20046;-31
2023/03/11 03:58:46;;;;;;;1.02;0.45;;;;;;;16.85;52.14;95696.97;10333859;28;20042;-32
2023/03/11 04:03:47;;;;;;;1.58;0.60;;;;;;;16.83;52.18;95673.41;10315345;28;20495;-31
2023/03/11 04:08:50;;;;;;;0.57;0.30;;;;;;;16.83;51.77;95673.41;10314734;28;20096;-31
2023/03/11 04:13:51;;;;;;;1.80;0.70;;;;;;;16.82;51.45;95686.88;10314819;28;20034;-31
2023/03/11 04:18:52;;;;;;;1.90;0.60;;;;;;;16.84;51.53;95695.28;10315117;28;20030;-31
2023/03/11 04:23:53;;;;;;;1.25;0.70;;;;;;;16.81;52.37;95710.50;10314404;28;20426;-31
2023/03/11 04:28:57;;;;;;;2.15;0.43;;;;;;;16.77;52.77;95702.09;10315043;28;20502;-31
2023/03/11 04:33:59;;;;;;;1.08;0.60;;;;;;;16.82;51.43;95697.81;10314376;28;20057;-32
2023/03/11 04:39:01;;;;;;;1.58;0.50;;;;;;;16.82;53.05;95699.53;10312658;28;20490;-31
2023/03/11 04:44:06;;;;;;;1.23;0.70;;;;;;;16.82;53.16;95712.16;10314673;28;20035;-31
2023/03/11 04:49:07;;;;;;;1.33;0.32;;;;;;;16.81;53.76;95716.38;10313584;28;20521;-32
2023/03/11 04:54:08;;;;;;;1.80;0.52;;;;;;;16.84;51.76;95725.63;10312153;28;20042;-31
2023/03/11 04:59:08;;;;;;;0.90;0.45;;;;;;;16.82;51.77;95728.16;10313878;28;20046;-31
2023/03/11 05:04:11;;;;;;;1.95;0.90;;;;;;;16.76;51.67;95707.16;10309208;28;20499;-31
2023/03/11 05:09:12;;;;;;;1.02;0.35;;;;;;;16.86;51.49;95721.38;10312821;28;20036;-31
2023/03/11 05:14:14;;;;;;;0.63;0.50;;;;;;;16.84;51.14;95721.38;10312768;28;20064;-32
2023/03/11 05:19:30;;;;;;;1.30;0.75;;;;;;;16.84;51.48;95720.56;10308230;28;20023;-31
2023/03/11 05:24:32;;;;;;;1.63;0.43;;;;;;;16.81;52.03;95697.84;10311982;28;20034;-31
2023/03/11 05:29:33;;;;;;;1.50;0.50;;;;;;;16.81;51.63;95700.38;10312568;28;20022;-31
2023/03/11 05:34:33;;;;;;;1.85;0.50;;;;;;;16.79;51.81;95702.06;10311969;28;20042;-31
2023/03/11 05:39:36;;;;;;;1.17;0.70;;;;;;;16.77;52.05;95703.78;10309892;28;20085;-32
2023/03/11 05:44:37;;;;;;;0.70;0.30;;;;;;;16.78;52.46;95707.97;10311912;28;20121;-31
2023/03/11 05:49:37;;;;;;;3.28;0.40;;;;;;;16.80;51.49;95708.78;10328832;28;20031;-31
2023/03/11 05:54:38;;;;;;;1.17;0.40;;;;;;;16.81;52.02;95713.03;10311307;28;20107;-31
2023/03/11 05:59:40;;;;;;;2.10;1.03;;;;;;;16.81;52.21;95708.78;10311553;28;20164;-31
2023/03/11 06:04:40;;;;;;;2.15;0.40;;;;;;;16.80;51.73;95722.28;10308380;28;20486;-31
2023/03/11 06:09:42;;;;;;;1.15;0.38;;;;;;;16.81;51.22;95720.59;10308799;28;20029;-31
2023/03/11 06:14:47;;;;;;;1.35;0.30;;;;;;;16.82;50.81;95717.22;10310709;28;20060;-31
2023/03/11 06:19:48;;;;;;;0.43;0.40;;;;;;;16.84;50.63;95736.53;10327472;28;20030;-31
2023/03/11 06:24:49;;;;;;;1.70;0.60;;;;;;;16.82;50.46;95742.50;10309745;28;20050;-31
2023/03/11 06:29:53;;;;;;;1.10;0.47;;;;;;;16.86;50.80;95756.75;10310692;28;20060;-31
2023/03/11 06:34:54;;;;;;;0.50;0.30;;;;;;;16.87;50.67;95755.91;10310040;28;20061;-31
2023/03/11 06:39:56;;;;;;;0.88;0.30;;;;;;;16.89;50.45;95754.22;10309305;28;20113;-31
2023/03/11 06:44:58;;;;;;;1.38;0.30;;;;;;;16.90;50.82;95760.97;10310326;28;20037;-31
2023/03/11 06:50:04;;;;;;;0.93;0.43;;;;;;;16.89;51.03;95779.50;10327110;28;20368;-31
2023/03/11 06:55:06;;;;;;;0.80;0.32;;;;;;;16.89;51.02;95787.09;10309373;28;20030;-31
2023/03/11 07:00:11;;;;;;;1.88;0.70;;;;;;;16.71;48.77;95794.81;10309947;28;20121;-31
2023/03/11 07:05:11;;;;;;;1.65;0.60;;;;;;;16.79;49.08;95798.09;10293788;28;20422;-31
2023/03/11 07:10:12;;;;;;;2.72;0.60;;;;;;;16.82;51.02;95803.16;10326979;28;20045;-31
2023/03/11 07:15:13;;;;;;;5.30;0.82;;;;;;;16.87;50.50;95781.19;10309160;28;20479;-31
2023/03/11 07:20:14;;;;;;;0.70;0.50;;;;;;;16.88;50.04;95785.38;10314674;28;20593;-31
2023/03/11 07:25:14;;;;;;;1.17;0.70;;;;;;;16.89;50.04;95792.16;10331483;28;20043;-31
2023/03/11 07:30:15;;;;;;;3.73;0.97;;;;;;;16.88;50.39;95795.50;10338005;28;20706;-31
2023/03/11 07:35:15;;;;;;;1.85;0.55;;;;;;;16.89;50.22;95809.84;10331739;28;20289;-31
2023/03/11 07:40:19;;;;;;;2.03;0.73;;;;;;;16.86;50.02;95819.97;10333963;28;20510;-32
2023/03/11 07:45:19;;;;;;;2.00;1.10;;;;;;;16.86;50.15;95809.84;10334193;28;20392;-32
2023/03/11 07:50:22;;;;;;;3.27;0.80;;;;;;;16.88;51.53;95830.88;10329064;28;20387;-30
2023/03/11 07:55:23;;;;;;;1.35;0.50;;;;;;;16.91;50.03;95834.25;10316564;28;20117;-32
2023/03/11 08:00:23;;;;;;;8.47;1.00;;;;;;;16.98;49.76;95830.00;10316964;28;20034;-31
2023/03/11 08:05:24;;;;;;;1.35;0.60;;;;;;;16.94;51.13;95808.94;10313867;28;20678;-31
2023/03/11 08:10:24;;;;;;;2.67;0.60;;;;;;;16.97;51.10;95821.56;10319288;28;20042;-31
2023/03/11 08:15:24;;;;;;;5.93;0.83;;;;;;;17.01;50.16;95820.69;10322721;28;20776;-30
2023/03/11 08:20:25;;;;;;;7.20;1.20;;;;;;;17.07;50.86;95817.28;10334380;28;20034;-31
2023/03/11 08:25:25;;;;;;;8.38;1.00;;;;;;;17.12;51.22;95843.34;10336293;28;20061;-31
2023/03/11 08:30:25;;;;;;;6.53;2.10;;;;;;;17.09;50.70;95829.03;10340418;28;20089;-31
2023/03/11 08:35:26;;;;;;;4.13;0.87;;;;;;;17.03;51.60;95844.28;10330681;28;20123;-31
2023/03/11 08:40:26;;;;;;;3.83;1.17;;;;;;;17.02;49.73;95845.13;10325450;28;20045;-31
2023/03/11 08:45:26;;;;;;;3.30;1.00;;;;;;;17.00;50.45;95856.09;10326648;28;20281;-31
2023/03/11 08:50:27;;;;;;;3.10;0.80;;;;;;;16.98;50.21;95860.34;10316644;28;20447;-31
2023/03/11 08:55:28;;;;;;;6.70;1.00;;;;;;;16.97;49.58;95858.63;10305435;28;20097;-30
2023/03/11 09:00:28;;;;;;;1.90;0.90;;;;;;;16.96;49.82;95857.81;10250431;28;20051;-31
2023/03/11 09:05:29;;;;;;;4.33;1.00;;;;;;;17.01;50.20;95867.88;10248433;28;20031;-30
2023/03/11 09:10:29;;;;;;;1.30;0.67;;;;;;;16.99;50.82;95878.00;10264244;28;20290;-31
2023/03/11 09:15:29;;;;;;;1.27;0.53;;;;;;;16.99;51.56;95889.81;10254256;28;20035;-30
2023/03/11 09:20:30;;;;;;;4.72;0.70;;;;;;;16.77;47.59;95888.28;10249776;28;20303;-33
2023/03/11 09:25:30;;;;;;;6.90;0.90;;;;;;;16.86;48.10;95895.78;10249051;28;20035;-32
2023/03/11 09:30:31;;;;;;;7.57;1.10;;;;;;;16.88;48.11;95904.19;10245929;28;20028;-31
2023/03/11 09:35:32;;;;;;;6.63;0.68;;;;;;;16.96;47.28;95908.38;10245517;28;20335;-31
2023/03/11 09:41:08;;;;;;;5.25;0.70;;;;;;;16.80;44.86;95911.00;10217414;28;20043;-33
2023/03/11 09:46:44;;;;;;;3.90;0.80;;;;;;;16.88;45.03;95909.25;10234548;29;20071;-31
2023/03/11 09:51:56;;;;;;;1.27;0.60;;;;;;;16.56;42.62;95916.22;10248817;28;20046;-30
2023/03/11 09:57:00;;;;;;;2.35;1.15;;;;;;;16.63;43.29;95902.69;10248077;28;20043;-30
2023/03/11 10:02:02;;;;;;;2.60;0.63;;;;;;;16.69;43.36;95891.72;10248133;28;20488;-30
2023/03/11 10:07:11;;;;;;;1.13;0.40;;;;;;;16.76;42.79;95894.19;10240564;29;20115;-30
2023/03/11 10:12:32;;;;;;;6.00;1.80;;;;;;;16.66;44.08;95896.78;10242320;28;20066;-30
2023/03/11 10:18:08;;;;;;;5.70;0.60;;;;;;;16.41;41.80;95906.19;10247892;28;20027;-31
2023/03/11 10:23:11;;;;;;;8.82;0.68;;;;;;;16.72;42.30;95886.63;10247527;28;20039;-31
2023/03/11 10:28:15;;;;;;;4.18;0.70;;;;;;;16.77;42.83;95886.59;10248132;28;20028;-31
2023/03/11 10:33:34;;;;;;;5.70;1.15;;;;;;;16.36;38.65;95895.22;10247301;28;20121;-30
2023/03/11 10:38:38;;;;;;;4.43;0.70;;;;;;;16.49;40.81;95894.34;10243658;28;20046;-30
2023/03/11 10:43:47;;;;;;;3.65;0.80;;;;;;;16.57;43.64;95891.78;10247843;28;20062;-30
2023/03/11 10:48:48;;;;;;;3.55;0.77;;;;;;;16.53;42.96;95905.28;10246999;28;20380;-31
2023/03/11 10:53:57;;;;;;;7.50;0.90;;;;;;;16.57;48.12;95897.69;10248923;28;20043;-31
2023/03/11 10:58:58;;;;;;;16.83;1.83;;;;;;;16.63;45.91;95876.59;10256025;28;20555;-31
2023/03/11 11:04:00;;;;;;;16.83;1.77;;;;;;;16.66;45.54;95879.94;10253773;28;20034;-31
2023/03/11 11:09:15;;;;;;;15.82;1.30;;;;;;;16.65;45.45;95885.00;10250836;28;20075;-31
2023/03/11 11:14:15;;;;;;;9.52;1.33;;;;;;;16.64;46.46;95879.13;10253951;28;20042;-31
2023/03/11 11:19:16;;;;;;;4.77;0.80;;;;;;;16.62;45.63;95870.69;10253078;28;20047;-31
2023/03/11 11:24:16;;;;;;;4.72;0.68;;;;;;;16.64;43.93;95870.69;10252560;29;20325;-31
2023/03/11 11:29:17;;;;;;;5.57;1.48;;;;;;;16.66;45.04;95881.59;10255170;28;20039;-31
2023/03/11 11:34:33;;;;;;;3.60;1.00;;;;;;;16.67;44.21;95884.97;10254119;28;20039;-31
2023/03/11 11:39:50;;;;;;;5.88;0.85;;;;;;;16.66;44.61;95877.41;10252294;28;20035;-31
2023/03/11 11:44:55;;;;;;;1.67;0.67;;;;;;;16.66;44.39;95879.94;10254407;28;20031;-30
2023/03/11 11:50:00;;;;;;;2.80;0.80;;;;;;;16.65;45.20;95877.41;10253401;28;20027;-31
2023/03/11 11:55:06;;;;;;;2.30;0.57;;;;;;;16.66;45.09;95867.31;10249147;28;20038;-30
2023/03/11 12:00:36;;;;;;;2.37;0.83;;;;;;;16.67;45.37;95874.03;10253735;28;20120;-31
2023/03/11 12:05:53;;;;;;;3.80;0.73;;;;;;;16.64;47.95;95879.13;10252270;28;20587;-31
2023/03/11 12:11:01;;;;;;;4.32;1.13;;;;;;;16.64;45.55;95874.06;10251958;28;20480;-32
2023/03/11 12:16:23;;;;;;;4.20;1.00;;;;;;;16.70;45.08;95865.59;10252756;28;20131;-31
2023/03/11 12:21:42;;;;;;;5.05;0.90;;;;;;;16.65;43.10;95850.47;10247160;28;20023;-31
2023/03/11 12:26:47;;;;;;;2.05;0.85;;;;;;;16.58;42.24;95846.28;10251821;29;20058;-32
2023/03/11 12:31:48;;;;;;;9.23;2.92;;;;;;;16.38;39.77;95832.94;10252316;28;20035;-31
2023/03/11 12:36:49;;;;;;;11.88;2.53;;;;;;;16.38;42.92;95835.47;10251354;28;20068;-31
2023/03/11 12:42:24;;;;;;;5.53;1.35;;;;;;;16.44;43.45;95834.59;10247903;28;20039;-31
2023/03/11 12:47:27;;;;;;;3.92;1.48;;;;;;;16.54;43.43;95842.09;10243536;28;20047;-32
2023/03/11 12:52:29;;;;;;;2.95;1.10;;;;;;;16.53;43.83;95842.13;10249897;28;20053;-32
2023/03/11 12:57:47;;;;;;;5.93;1.35;;;;;;;16.52;44.94;95833.69;10249592;28;20113;-31
2023/03/11 13:02:59;;;;;;;4.03;1.52;;;;;;;16.52;44.92;95837.94;10263849;28;20039;-31
2023/03/11 13:08:08;;;;;;;4.38;0.90;;;;;;;16.51;45.07;95832.03;10246864;28;20035;-30
2023/03/11 13:13:31;;;;;;;5.13;1.23;;;;;;;16.45;44.76;95834.56;10250792;28;20492;-31
2023/03/11 13:18:31;;;;;;;3.75;0.70;;;;;;;16.10;44.96;95838.13;10248594;28;20129;-32
2023/03/11 13:23:37;;;;;;;3.95;1.00;;;;;;;16.40;44.36;95831.25;10248112;28;20031;-31
2023/03/11 13:28:40;;;;;;;5.95;1.10;;;;;;;16.44;43.29;95842.19;10250918;28;20039;-31
2023/03/11 13:33:50;;;;;;;2.58;0.70;;;;;;;16.46;42.92;95841.31;10240946;28;20519;-31
2023/03/11 13:39:07;;;;;;;2.97;0.65;;;;;;;16.49;42.41;95853.94;10247462;29;20046;-31
2023/03/11 13:44:19;;;;;;;2.80;0.68;;;;;;;16.45;44.03;95852.25;10249018;29;20042;-31
2023/03/11 13:49:38;;;;;;;6.03;1.00;;;;;;;16.44;41.41;95860.69;10248046;28;20476;-31
2023/03/11 13:54:47;;;;;;;5.53;1.38;;;;;;;16.50;42.24;95859.81;10248301;28;20403;-31
2023/03/11 13:59:52;;;;;;;6.07;1.05;;;;;;;16.33;40.62;95871.66;10249087;28;20027;-32
2023/03/11 14:04:57;;;;;;;3.60;0.82;;;;;;;16.26;40.53;95870.88;10245834;28;20085;-31
2023/03/11 14:10:18;;;;;;;10.27;1.67;;;;;;;16.37;44.26;95864.09;10245860;28;20031;-31
2023/03/11 14:15:22;;;;;;;3.25;1.10;;;;;;;16.38;45.07;95875.88;10248094;28;20042;-32
2023/03/11 14:20:27;;;;;;;2.15;1.00;;;;;;;16.40;45.30;95863.25;10247829;28;20039;-31
2023/03/11 14:25:29;;;;;;;3.25;0.63;;;;;;;16.43;43.91;95876.69;10245055;28;20031;-31
2023/03/11 14:30:32;;;;;;;2.65;0.80;;;;;;;16.50;44.91;95880.03;10248009;28;20480;-31
2023/03/11 14:35:33;;;;;;;3.67;1.92;;;;;;;16.53;47.05;95864.88;10240427;28;20027;-34
2023/03/11 14:40:40;;;;;;;3.80;1.20;;;;;;;16.33;39.78;95861.56;10241027;29;20039;-32
2023/03/11 14:45:42;;;;;;;14.15;1.73;;;;;;;16.30;38.22;95859.88;10245271;28;20046;-31
2023/03/11 14:50:48;;;;;;;4.20;1.10;;;;;;;16.39;42.00;95867.47;10241928;28;20027;-32
2023/03/11 14:55:54;;;;;;;4.60;0.70;;;;;;;16.43;42.89;95873.31;10241518;28;20408;-31
2023/03/11 15:01:11;;;;;;;2.23;0.50;;;;;;;16.44;43.40;95870.78;10245290;28;20539;-31
2023/03/11 15:06:15;;;;;;;6.53;1.25;;;;;;;16.36;41.27;95869.16;10244527;28;20362;-31
2023/03/11 15:11:15;;;;;;;1.65;0.70;;;;;;;16.43;43.52;95881.75;10245888;28;20036;-32
2023/03/11 15:16:30;;;;;;;3.50;1.17;;;;;;;16.42;44.18;95882.59;10238914;29;20510;-32
2023/03/11 15:21:31;;;;;;;1.33;0.45;;;;;;;16.43;44.58;95894.38;10247336;28;20027;-31
2023/03/11 15:26:34;;;;;;;1.47;0.60;;;;;;;16.46;44.17;95899.41;10242849;29;20054;-31
2023/03/11 15:31:36;;;;;;;3.78;0.82;;;;;;;16.42;45.54;95904.47;10247155;28;20062;-31
2023/03/11 15:36:46;;;;;;;3.55;0.90;;;;;;;16.45;44.84;95920.47;10240340;28;20208;-31
2023/03/11 15:58:52;;;;;;;5.93;0.90;;;;;;;16.65;47.38;95916.16;10500419;27;20506;-33
2023/03/11 16:03:52;;;;;;;5.37;1.63;;;;;;;16.57;44.87;95912.84;10446582;28;20162;-34
2023/03/11 16:08:53;;;;;;;3.47;1.20;;;;;;;16.55;45.62;95921.28;10456605;28;20045;-34
2023/03/11 16:13:53;;;;;;;3.05;0.73;;;;;;;16.48;46.04;95922.16;10450583;28;20294;-33
2023/03/11 16:18:53;;;;;;;5.97;1.00;;;;;;;16.48;46.23;95925.53;10454845;28;20054;-35
2023/03/11 16:23:54;;;;;;;5.47;1.10;;;;;;;16.45;45.67;95937.34;10456572;28;20040;-35
2023/03/11 16:28:54;;;;;;;3.37;0.80;;;;;;;16.44;44.53;95936.47;10452364;28;20083;-35
2023/03/11 16:33:54;;;;;;;4.10;0.97;;;;;;;16.47;45.33;95943.22;10457296;28;20036;-34
2023/03/11 16:38:55;;;;;;;3.30;1.27;;;;;;;16.47;46.56;95941.53;10449028;28;20279;-34
2023/03/11 16:43:55;;;;;;;6.32;1.00;;;;;;;16.50;46.92;95946.56;10453462;28;20395;-33
2023/03/11 16:48:55;;;;;;;6.63;1.63;;;;;;;16.44;43.02;95941.53;10460418;28;20067;-34
2023/03/11 16:53:56;;;;;;;4.53;1.50;;;;;;;16.44;46.39;95933.94;10454980;28;20124;-34
2023/03/11 16:58:56;;;;;;;9.25;1.85;;;;;;;16.45;46.15;95945.72;10430707;28;20033;-33
2023/03/11 17:03:57;;;;;;;4.93;1.20;;;;;;;16.46;45.74;95949.94;10426840;28;20037;-34
2023/03/11 17:08:57;;;;;;;3.83;1.30;;;;;;;16.47;46.32;95961.75;10430421;28;20120;-34
2023/03/11 17:13:58;;;;;;;5.07;1.70;;;;;;;16.47;47.27;95964.28;10424984;28;20400;-34
2023/03/11 17:19:00;;;;;;;4.15;1.33;;;;;;;16.43;46.15;95960.06;10428457;28;20037;-38
2023/03/11 17:24:00;;;;;;;4.35;1.10;;;;;;;16.47;45.60;95974.38;10430524;28;20119;-33
2023/03/11 17:29:01;;;;;;;2.13;1.17;;;;;;;16.44;45.49;95976.06;10429591;28;20102;-36
2023/03/11 17:34:01;;;;;;;2.95;0.75;;;;;;;16.41;45.51;95987.03;10424740;28;20522;-34
2023/03/11 17:39:02;;;;;;;2.67;0.88;;;;;;;16.43;45.21;95995.44;10428284;28;20068;-34
2023/03/11 17:44:02;;;;;;;3.40;1.42;;;;;;;16.40;45.37;96000.50;10427293;28;20403;-34
2023/03/11 17:49:03;;;;;;;4.25;1.15;;;;;;;16.39;44.81;96013.97;10420955;28;20512;-34
2023/03/11 17:54:03;;;;;;;4.65;1.30;;;;;;;16.44;44.87;96024.06;10426352;28;20041;-34
2023/03/11 17:59:04;;;;;;;3.65;1.00;;;;;;;16.40;45.45;96020.72;10426559;28;20064;-34
2023/03/11 18:04:05;;;;;;;2.50;1.13;;;;;;;16.40;45.12;96019.84;10423890;28;20041;-35
2023/03/11 18:09:06;;;;;;;2.33;1.30;;;;;;;16.43;45.49;96020.69;10415632;28;20049;-34
2023/03/11 18:14:06;;;;;;;3.90;1.50;;;;;;;16.41;46.16;96022.38;10419325;28;20048;-40
2023/03/11 18:19:06;;;;;;;4.63;1.67;;;;;;;16.40;42.60;96035.00;10418055;28;20518;-34
2023/03/11 18:24:07;;;;;;;6.17;2.00;;;;;;;16.43;43.74;96043.44;10425891;28;20291;-34
2023/03/11 18:29:07;;;;;;;13.57;2.57;;;;;;;16.87;40.30;96054.22;10426815;28;20040;-35
2023/03/11 18:34:13;;;;;;;6.23;2.10;;;;;;;16.77;44.54;96072.78;10426989;28;20647;-33
2023/03/11 18:39:13;;;;;;;10.75;2.63;;;;;;;16.66;45.20;96059.38;10423980;28;20123;-35
2023/03/11 18:44:14;;;;;;;9.60;2.78;;;;;;;16.61;45.50;96063.56;10427036;28;20032;-34
2023/03/11 18:49:15;;;;;;;7.25;2.63;;;;;;;16.54;45.30;96064.44;10424183;28;20048;-34
2023/03/11 18:54:16;;;;;;;7.90;2.58;;;;;;;16.53;44.02;96077.09;10426464;28;20324;-33
2023/03/11 18:59:16;;;;;;;8.38;2.53;;;;;;;16.50;44.47;96072.88;10420119;28;20045;-35
2023/03/11 19:04:16;;;;;;;7.80;2.70;;;;;;;16.47;44.93;96075.44;10424143;28;20041;-34
2023/03/11 19:09:17;;;;;;;5.47;2.20;;;;;;;16.45;45.08;96079.63;10426054;28;20542;-33
2023/03/11 19:14:17;;;;;;;7.32;2.17;;;;;;;16.41;45.48;96080.50;10420306;28;20300;-33
2023/03/11 19:19:18;;;;;;;3.97;2.20;;;;;;;16.38;45.17;96095.63;10419858;28;20155;-34
2023/03/11 19:24:18;;;;;;;3.80;2.20;;;;;;;16.39;45.37;96106.59;10420208;28;20025;-34
2023/03/11 19:29:19;;;;;;;5.93;1.87;;;;;;;16.41;44.73;96113.31;10422670;28;20295;-34
2023/03/11 19:34:22;;;;;;;4.60;2.00;;;;;;;16.36;44.95;96119.19;10413348;28;20029;-34
2023/03/11 19:39:22;;;;;;;3.88;2.03;;;;;;;16.37;44.36;96125.97;10417331;28;20037;-35
2023/03/11 19:44:22;;;;;;;5.67;1.87;;;;;;;16.40;45.42;96131.84;10420697;28;20055;-34
2023/03/11 19:49:23;;;;;;;4.80;2.33;;;;;;;16.40;46.11;96131.84;10418061;28;20052;-37
2023/03/11 19:54:23;;;;;;;5.43;2.20;;;;;;;16.41;46.32;96133.53;10420750;28;20037;-34
2023/03/11 19:59:23;;;;;;;5.03;2.20;;;;;;;16.39;43.31;96130.19;10413484;28;20298;-34
2023/03/11 20:04:24;;;;;;;5.47;1.83;;;;;;;16.37;45.21;96141.94;10415774;28;20025;-34
2023/03/11 20:09:24;;;;;;;4.60;2.70;;;;;;;16.31;45.71;96147.00;10414236;28;20288;-34
2023/03/11 20:14:27;;;;;;;3.60;1.87;;;;;;;16.32;43.59;96153.72;10418653;28;20033;-34
2023/03/11 20:19:27;;;;;;;7.32;1.98;;;;;;;16.30;44.06;96162.97;10415997;28;20064;-35
2023/03/11 20:24:28;;;;;;;2.90;1.60;;;;;;;16.26;44.41;96158.78;10422116;28;20040;-34
2023/03/11 20:29:28;;;;;;;2.70;1.67;;;;;;;16.27;44.46;96155.41;10421501;28;20299;-34
2023/03/11 20:34:28;;;;;;;4.27;1.73;;;;;;;16.25;44.66;96157.09;10417602;28;20400;-35
2023/03/11 20:39:29;;;;;;;4.80;1.88;;;;;;;16.27;43.52;96160.44;10425465;28;20040;-35
2023/03/11 20:44:29;;;;;;;3.87;1.40;;;;;;;16.27;43.96;96165.50;10429597;28;20025;-34
2023/03/11 20:49:30;;;;;;;2.53;1.48;;;;;;;16.25;43.57;96164.66;10424857;28;20074;-34
2023/03/11 20:54:30;;;;;;;3.20;1.70;;;;;;;16.30;43.71;96173.06;10427281;28;20412;-35
2023/03/11 20:59:31;;;;;;;3.20;1.70;;;;;;;16.34;41.95;96172.25;10419360;28;20509;-33
2023/03/11 21:04:31;;;;;;;2.75;1.70;;;;;;;16.37;44.34;96172.25;10416871;28;20420;-34
2023/03/11 21:09:31;;;;;;;2.77;1.80;;;;;;;16.35;44.89;96178.16;10426371;28;20038;-34
2023/03/11 21:14:32;;;;;;;3.38;2.00;;;;;;;16.37;44.75;96177.31;10421178;28;20035;-33
2023/03/11 21:19:32;;;;;;;2.93;1.50;;;;;;;16.38;44.04;96178.16;10421180;28;20033;-35
2023/03/11 21:24:32;;;;;;;1.97;1.43;;;;;;;16.32;43.85;96178.97;10419475;28;20037;-33
2023/03/11 21:29:33;;;;;;;2.47;1.73;;;;;;;16.36;43.61;96187.41;10422879;28;20287;-34
2023/03/11 21:34:33;;;;;;;2.77;1.33;;;;;;;16.35;44.22;96188.25;10431458;28;20087;-34
2023/03/11 21:39:33;;;;;;;2.77;1.50;;;;;;;16.31;43.49;96181.50;10420738;28;20386;-34
2023/03/11 21:44:34;;;;;;;2.23;1.43;;;;;;;16.35;44.04;96181.50;10420761;28;20025;-35
2023/03/11 21:49:34;;;;;;;3.50;1.30;;;;;;;16.33;43.52;96183.19;10423381;28;20296;-34
2023/03/11 21:54:34;;;;;;;3.50;1.50;;;;;;;16.35;43.86;96178.16;10425576;28;20038;-35
2023/03/11 21:59:35;;;;;;;3.07;1.53;;;;;;;16.31;43.25;96192.47;10419019;28;20037;-33
2023/03/11 22:04:35;;;;;;;3.17;1.30;;;;;;;16.31;43.94;96187.41;10413212;28;20039;-33
2023/03/11 22:09:36;;;;;;;2.73;1.70;;;;;;;16.29;43.98;96199.16;10418441;28;20037;-34
2023/03/11 22:14:36;;;;;;;1.85;1.67;;;;;;;16.28;44.12;96202.53;10421365;28;20508;-33
2023/03/11 22:19:38;;;;;;;2.53;1.47;;;;;;;16.30;44.17;96205.91;10427674;28;20033;-34
2023/03/11 22:24:39;;;;;;;3.25;1.40;;;;;;;16.31;45.03;96202.56;10419580;28;20067;-34
2023/03/11 22:29:39;;;;;;;2.57;1.60;;;;;;;16.31;45.17;96199.19;10422655;28;20051;-33
2023/03/11 22:34:40;;;;;;;2.27;1.20;;;;;;;16.35;43.35;96205.94;10418510;28;20076;-35
2023/03/11 22:39:41;;;;;;;4.63;1.50;;;;;;;16.31;43.29;96201.72;10422700;28;20366;-34
2023/03/11 22:44:41;;;;;;;2.88;1.33;;;;;;;16.30;44.73;96210.13;10424847;28;20033;-34
2023/03/11 22:49:41;;;;;;;1.90;1.30;;;;;;;16.26;44.93;96199.19;10423644;28;20037;-32
2023/03/11 22:54:42;;;;;;;3.17;1.50;;;;;;;16.27;44.97;96205.91;10423794;28;20025;-34
2023/03/11 22:59:43;;;;;;;2.78;1.40;;;;;;;16.27;45.54;96215.19;10421871;28;20048;-32
2023/03/11 23:04:44;;;;;;;3.08;1.25;;;;;;;16.27;45.20;96227.81;10422933;28;20512;-34
2023/03/11 23:09:44;;;;;;;2.58;1.35;;;;;;;16.24;45.13;96221.06;10417625;28;20399;-34
2023/03/11 23:14:46;;;;;;;2.30;1.67;;;;;;;16.29;44.88;96234.53;10416928;28;20033;-34
2023/03/11 23:19:46;;;;;;;2.10;1.13;;;;;;;16.25;44.87;96227.81;10420437;28;20040;-32
2023/03/11 23:24:46;;;;;;;2.23;1.20;;;;;;;16.24;44.87;96220.22;10422552;28;20059;-34
2023/03/11 23:29:47;;;;;;;3.20;1.03;;;;;;;16.24;44.54;96231.19;10419014;28;20287;-34
2023/03/11 23:34:47;;;;;;;1.63;0.95;;;;;;;16.24;44.44;96231.19;10426742;28;20037;-37
2023/03/11 23:39:48;;;;;;;1.63;1.00;;;;;;;16.28;45.51;96227.81;10424761;28;20033;-33
2023/03/11 23:44:48;;;;;;;1.88;1.33;;;;;;;16.29;45.96;96228.66;10420496;28;20037;-34